sensor_id;sensor_type;location;lat;lon;timestamp;pressure;altitude;pressure_sealevel;temperature;humidity
23303;BME280;11820;48.738;9.092;2024-01-27T00:00:21;97944.88;;;4.34;100.00
23303;BME280;11820;48.738;9.092;2024-01-27T00:02:47;97951.09;;;4.08;100.00
23303;BME280;11820;48.738;9.092;2024-01-27T00:05:12;97949.78;;;4.03;100.00
23303;BME280;11820;48.738;9.092;2024-01-27T00:07:37;97962.66;;;3.90;100.00
23303;BME280;11820;48.738;9.092;2024-01-27T00:10:03;97962.34;;;3.71;100.00
23303;BME280;11820;48.738;9.092;2024-01-27T00:12:29;97958.69;;;3.86;100.00
23303;BME280;11820;48.738;9.092;2024-01-27T00:14:54;97962.22;;;3.96;100.00
23303;BME280;11820;48.738;9.092;2024-01-27T00:17:19;97968.00;;;3.87;100.00
23303;BME280;11820;48.738;9.092;2024-01-27T00:19:49;97960.22;;;3.89;100.00
23303;BME280;11820;48.738;9.092;2024-01-27T00:22:15;97953.66;;;4.08;100.00
23303;BME280;11820;48.738;9.092;2024-01-27T00:24:40;97956.81;;;3.88;100.00
23303;BME280;11820;48.738;9.092;2024-01-27T00:27:05;97957.81;;;3.98;100.00
23303;BME280;11820;48.738;9.092;2024-01-27T00:29:31;97957.81;;;3.98;100.00
23303;BME280;11820;48.738;9.092;2024-01-27T00:31:56;97954.88;;;3.92;100.00
23303;BME280;11820;48.738;9.092;2024-01-27T00:34:21;97961.47;;;3.83;100.00
23303;BME280;11820;48.738;9.092;2024-01-27T00:36:47;97964.56;;;3.76;100.00
23303;BME280;11820;48.738;9.092;2024-01-27T00:39:17;97969.25;;;3.58;100.00
23303;BME280;11820;48.738;9.092;2024-01-27T00:41:43;97969.22;;;3.47;100.00
23303;BME280;11820;48.738;9.092;2024-01-27T00:44:09;97974.69;;;3.54;100.00
23303;BME280;11820;48.738;9.092;2024-01-27T00:46:36;97967.97;;;3.76;100.00
23303;BME280;11820;48.738;9.092;2024-01-27T00:49:02;97969.47;;;3.79;100.00
23303;BME280;11820;48.738;9.092;2024-01-27T00:51:27;97970.22;;;3.68;100.00
23303;BME280;11820;48.738;9.092;2024-01-27T00:53:53;97975.06;;;3.60;100.00
23303;BME280;11820;48.738;9.092;2024-01-27T00:56:18;97969.09;;;3.72;100.00
23303;BME280;11820;48.738;9.092;2024-01-27T00:58:43;97974.28;;;3.60;100.00
23303;BME280;11820;48.738;9.092;2024-01-27T01:01:08;97971.47;;;3.39;100.00
23303;BME280;11820;48.738;9.092;2024-01-27T01:03:34;97971.16;;;3.44;100.00
23303;BME280;11820;48.738;9.092;2024-01-27T01:05:59;97975.13;;;3.48;100.00
23303;BME280;11820;48.738;9.092;2024-01-27T01:08:24;97979.47;;;3.35;100.00
23303;BME280;11820;48.738;9.092;2024-01-27T01:10:50;97983.72;;;3.47;100.00
23303;BME280;11820;48.738;9.092;2024-01-27T01:13:15;97989.28;;;3.28;100.00
23303;BME280;11820;48.738;9.092;2024-01-27T01:15:40;97991.28;;;3.48;100.00
23303;BME280;11820;48.738;9.092;2024-01-27T01:18:06;97991.69;;;3.42;100.00
23303;BME280;11820;48.738;9.092;2024-01-27T01:20:31;97988.44;;;3.40;100.00
23303;BME280;11820;48.738;9.092;2024-01-27T01:22:57;97998.81;;;3.26;100.00
23303;BME280;11820;48.738;9.092;2024-01-27T01:25:23;97992.84;;;3.38;100.00
23303;BME280;11820;48.738;9.092;2024-01-27T01:27:48;97998.59;;;3.29;100.00
23303;BME280;11820;48.738;9.092;2024-01-27T01:30:15;97999.44;;;3.05;100.00
23303;BME280;11820;48.738;9.092;2024-01-27T01:32:40;97997.31;;;2.99;100.00
23303;BME280;11820;48.738;9.092;2024-01-27T01:35:05;97992.63;;;3.06;100.00
23303;BME280;11820;48.738;9.092;2024-01-27T01:37:31;97995.53;;;3.24;100.00
23303;BME280;11820;48.738;9.092;2024-01-27T01:39:56;98004.66;;;3.16;100.00
23303;BME280;11820;48.738;9.092;2024-01-27T01:42:21;98004.88;;;3.13;100.00
23303;BME280;11820;48.738;9.092;2024-01-27T01:44:50;98002.06;;;3.28;100.00
23303;BME280;11820;48.738;9.092;2024-01-27T01:47:16;97995.50;;;3.37;100.00
23303;BME280;11820;48.738;9.092;2024-01-27T01:49:41;98001.78;;;3.33;100.00
23303;BME280;11820;48.738;9.092;2024-01-27T01:52:07;98006.47;;;3.26;100.00
23303;BME280;11820;48.738;9.092;2024-01-27T01:54:32;97998.41;;;3.20;100.00
23303;BME280;11820;48.738;9.092;2024-01-27T01:56:58;98003.78;;;3.40;100.00
23303;BME280;11820;48.738;9.092;2024-01-27T01:59:24;98002.44;;;3.47;100.00
23303;BME280;11820;48.738;9.092;2024-01-27T02:01:49;98009.88;;;3.50;100.00
23303;BME280;11820;48.738;9.092;2024-01-27T02:04:15;98014.63;;;3.31;100.00
23303;BME280;11820;48.738;9.092;2024-01-27T02:06:40;98013.13;;;3.65;100.00
23303;BME280;11820;48.738;9.092;2024-01-27T02:09:05;98012.16;;;3.42;100.00
23303;BME280;11820;48.738;9.092;2024-01-27T02:11:31;98022.81;;;3.36;100.00
23303;BME280;11820;48.738;9.092;2024-01-27T02:13:56;98012.16;;;3.42;100.00
23303;BME280;11820;48.738;9.092;2024-01-27T02:16:22;98034.09;;;3.21;100.00
23303;BME280;11820;48.738;9.092;2024-01-27T02:18:47;98033.38;;;3.32;100.00
23303;BME280;11820;48.738;9.092;2024-01-27T02:21:12;98033.66;;;3.27;100.00
23303;BME280;11820;48.738;9.092;2024-01-27T02:23:38;98036.53;;;3.11;100.00
23303;BME280;11820;48.738;9.092;2024-01-27T02:26:03;98035.44;;;3.02;100.00
23303;BME280;11820;48.738;9.092;2024-01-27T02:28:28;98036.34;;;2.89;100.00
23303;BME280;11820;48.738;9.092;2024-01-27T02:30:57;98049.25;;;2.75;100.00
23303;BME280;11820;48.738;9.092;2024-01-27T02:33:22;98052.91;;;2.71;100.00
23303;BME280;11820;48.738;9.092;2024-01-27T02:35:48;98063.13;;;2.71;100.00
23303;BME280;11820;48.738;9.092;2024-01-27T02:38:13;98052.31;;;2.92;100.00
23303;BME280;11820;48.738;9.092;2024-01-27T02:40:38;98064.97;;;2.69;100.00
23303;BME280;11820;48.738;9.092;2024-01-27T02:43:04;98068.00;;;2.61;100.00
23303;BME280;11820;48.738;9.092;2024-01-27T02:45:29;98069.88;;;2.72;100.00
23303;BME280;11820;48.738;9.092;2024-01-27T02:47:54;98064.66;;;2.86;100.00
23303;BME280;11820;48.738;9.092;2024-01-27T02:50:20;98065.78;;;2.82;100.00
23303;BME280;11820;48.738;9.092;2024-01-27T02:52:45;98062.31;;;2.95;100.00
23303;BME280;11820;48.738;9.092;2024-01-27T02:55:10;98058.84;;;2.96;100.00
23303;BME280;11820;48.738;9.092;2024-01-27T02:57:36;98058.31;;;2.91;100.00
23303;BME280;11820;48.738;9.092;2024-01-27T03:00:01;98065.06;;;2.80;100.00
23303;BME280;11820;48.738;9.092;2024-01-27T03:02:26;98059.84;;;2.56;100.00
23303;BME280;11820;48.738;9.092;2024-01-27T03:04:52;98068.78;;;2.49;100.00
23303;BME280;11820;48.738;9.092;2024-01-27T03:07:17;98066.66;;;2.56;100.00
23303;BME280;11820;48.738;9.092;2024-01-27T03:09:42;98066.69;;;2.68;100.00
23303;BME280;11820;48.738;9.092;2024-01-27T03:12:08;98072.09;;;2.64;100.00
23303;BME280;11820;48.738;9.092;2024-01-27T03:14:33;98070.84;;;2.57;100.00
23303;BME280;11820;48.738;9.092;2024-01-27T03:16:59;98069.47;;;2.78;100.00
23303;BME280;11820;48.738;9.092;2024-01-27T03:19:24;98067.41;;;2.83;100.00
23303;BME280;11820;48.738;9.092;2024-01-27T03:21:49;98063.66;;;3.01;100.00
23303;BME280;11820;48.738;9.092;2024-01-27T03:24:15;98064.94;;;3.06;100.00
23303;BME280;11820;48.738;9.092;2024-01-27T03:26:40;98057.41;;;3.05;100.00
23303;BME280;11820;48.738;9.092;2024-01-27T03:29:05;98070.81;;;2.96;100.00
23303;BME280;11820;48.738;9.092;2024-01-27T03:31:31;98071.91;;;2.92;100.00
23303;BME280;11820;48.738;9.092;2024-01-27T03:33:58;98082.72;;;2.70;100.00
23303;BME280;11820;48.738;9.092;2024-01-27T03:36:24;98085.78;;;2.75;100.00
23303;BME280;11820;48.738;9.092;2024-01-27T03:38:49;98099.06;;;2.80;100.00
23303;BME280;11820;48.738;9.092;2024-01-27T03:41:15;98094.25;;;2.51;100.00
23303;BME280;11820;48.738;9.092;2024-01-27T03:43:40;98098.53;;;2.63;100.00
23303;BME280;11820;48.738;9.092;2024-01-27T03:46:05;98110.59;;;2.61;100.00
23303;BME280;11820;48.738;9.092;2024-01-27T03:48:31;98106.81;;;2.66;100.00
23303;BME280;11820;48.738;9.092;2024-01-27T03:50:56;98106.00;;;2.66;100.00
23303;BME280;11820;48.738;9.092;2024-01-27T03:53:21;98109.59;;;2.37;100.00
23303;BME280;11820;48.738;9.092;2024-01-27T03:55:47;98102.19;;;2.46;100.00
23303;BME280;11820;48.738;9.092;2024-01-27T03:58:12;98104.25;;;2.54;100.00
23303;BME280;11820;48.738;9.092;2024-01-27T04:00:37;98110.06;;;2.56;100.00
23303;BME280;11820;48.738;9.092;2024-01-27T04:03:03;98111.38;;;2.49;100.00
23303;BME280;11820;48.738;9.092;2024-01-27T04:05:29;98109.81;;;2.34;100.00
23303;BME280;11820;48.738;9.092;2024-01-27T04:07:55;98106.72;;;2.55;100.00
23303;BME280;11820;48.738;9.092;2024-01-27T04:10:22;98104.66;;;2.48;100.00
23303;BME280;11820;48.738;9.092;2024-01-27T04:12:47;98111.75;;;2.30;100.00
23303;BME280;11820;48.738;9.092;2024-01-27T04:15:12;98110.63;;;2.34;100.00
23303;BME280;11820;48.738;9.092;2024-01-27T04:17:39;98103.03;;;2.59;100.00
23303;BME280;11820;48.738;9.092;2024-01-27T04:20:05;98102.38;;;2.82;100.00
23303;BME280;11820;48.738;9.092;2024-01-27T04:22:32;98102.88;;;2.87;100.00
23303;BME280;11820;48.738;9.092;2024-01-27T04:24:57;98107.66;;;2.92;100.00
23303;BME280;11820;48.738;9.092;2024-01-27T04:27:22;98110.94;;;2.81;100.00
23303;BME280;11820;48.738;9.092;2024-01-27T04:29:48;98118.91;;;2.77;100.00
23303;BME280;11820;48.738;9.092;2024-01-27T04:32:13;98111.84;;;2.80;100.00
23303;BME280;11820;48.738;9.092;2024-01-27T04:34:39;98115.00;;;2.71;100.00
23303;BME280;11820;48.738;9.092;2024-01-27T04:37:05;98126.28;;;2.42;100.00
23303;BME280;11820;48.738;9.092;2024-01-27T04:39:30;98124.81;;;2.38;100.00
23303;BME280;11820;48.738;9.092;2024-01-27T04:41:55;98125.44;;;2.42;100.00
23303;BME280;11820;48.738;9.092;2024-01-27T04:44:21;98123.97;;;2.64;100.00
23303;BME280;11820;48.738;9.092;2024-01-27T04:46:46;98124.72;;;2.40;100.00
23303;BME280;11820;48.738;9.092;2024-01-27T04:49:11;98121.91;;;2.57;100.00
23303;BME280;11820;48.738;9.092;2024-01-27T04:51:37;98125.38;;;2.56;100.00
23303;BME280;11820;48.738;9.092;2024-01-27T04:54:02;98120.78;;;2.22;100.00
23303;BME280;11820;48.738;9.092;2024-01-27T04:56:27;98117.28;;;2.10;100.00
23303;BME280;11820;48.738;9.092;2024-01-27T04:58:53;98120.31;;;2.03;100.00
23303;BME280;11820;48.738;9.092;2024-01-27T05:01:18;98117.09;;;2.13;100.00
23303;BME280;11820;48.738;9.092;2024-01-27T05:03:43;98113.78;;;2.38;100.00
23303;BME280;11820;48.738;9.092;2024-01-27T05:06:10;98127.16;;;2.29;100.00
23303;BME280;11820;48.738;9.092;2024-01-27T05:08:35;98131.56;;;2.13;100.00
23303;BME280;11820;48.738;9.092;2024-01-27T05:11:00;98131.75;;;2.10;100.00
23303;BME280;11820;48.738;9.092;2024-01-27T05:13:26;98131.19;;;2.19;100.00
23303;BME280;11820;48.738;9.092;2024-01-27T05:15:51;98136.34;;;1.91;100.00
23303;BME280;11820;48.738;9.092;2024-01-27T05:18:17;98134.91;;;1.87;100.00
23303;BME280;11820;48.738;9.092;2024-01-27T05:20:42;98127.63;;;1.95;100.00
23303;BME280;11820;48.738;9.092;2024-01-27T05:23:07;98132.59;;;1.96;100.00
23303;BME280;11820;48.738;9.092;2024-01-27T05:25:33;98134.59;;;2.05;100.00
23303;BME280;11820;48.738;9.092;2024-01-27T05:27:58;98133.00;;;1.90;100.00
23303;BME280;11820;48.738;9.092;2024-01-27T05:30:23;98137.16;;;2.05;100.00
23303;BME280;11820;48.738;9.092;2024-01-27T05:32:48;98129.31;;;2.08;100.00
23303;BME280;11820;48.738;9.092;2024-01-27T05:35:14;98127.63;;;1.95;100.00
23303;BME280;11820;48.738;9.092;2024-01-27T05:37:39;98124.56;;;1.62;100.00
23303;BME280;11820;48.738;9.092;2024-01-27T05:40:06;98123.66;;;1.63;100.00
23303;BME280;11820;48.738;9.092;2024-01-27T05:42:32;98134.56;;;1.93;100.00
23303;BME280;11820;48.738;9.092;2024-01-27T05:44:57;98126.00;;;1.94;100.00
23303;BME280;11820;48.738;9.092;2024-01-27T05:47:22;98118.81;;;1.72;100.00
23303;BME280;11820;48.738;9.092;2024-01-27T05:49:48;98127.63;;;1.95;100.00
23303;BME280;11820;48.738;9.092;2024-01-27T05:52:13;98125.25;;;1.92;100.00
23303;BME280;11820;48.738;9.092;2024-01-27T05:54:42;98125.09;;;1.81;100.00
23303;BME280;11820;48.738;9.092;2024-01-27T05:57:07;98123.66;;;1.77;100.00
23303;BME280;11820;48.738;9.092;2024-01-27T05:59:33;98126.75;;;1.54;100.00
23303;BME280;11820;48.738;9.092;2024-01-27T06:01:58;98134.94;;;1.59;100.00
23303;BME280;11820;48.738;9.092;2024-01-27T06:04:23;98128.78;;;1.49;100.00
23303;BME280;11820;48.738;9.092;2024-01-27T06:06:49;98140.13;;;1.71;100.00
23303;BME280;11820;48.738;9.092;2024-01-27T06:09:14;98139.22;;;1.45;100.00
23303;BME280;11820;48.738;9.092;2024-01-27T06:11:39;98129.84;;;1.59;100.00
23303;BME280;11820;48.738;9.092;2024-01-27T06:14:05;98130.22;;;1.39;100.00
23303;BME280;11820;48.738;9.092;2024-01-27T06:16:31;98134.59;;;1.51;100.00
23303;BME280;11820;48.738;9.092;2024-01-27T06:18:57;98131.84;;;1.40;100.00
23303;BME280;11820;48.738;9.092;2024-01-27T06:21:22;98140.97;;;1.72;100.00
23303;BME280;11820;48.738;9.092;2024-01-27T06:23:47;98143.84;;;1.80;100.00
23303;BME280;11820;48.738;9.092;2024-01-27T06:26:13;98145.78;;;1.62;100.00
23303;BME280;11820;48.738;9.092;2024-01-27T06:28:40;98151.88;;;1.60;100.00
23303;BME280;11820;48.738;9.092;2024-01-27T06:31:06;98155.78;;;1.52;100.00
23303;BME280;11820;48.738;9.092;2024-01-27T06:33:34;98159.97;;;1.52;100.00
23303;BME280;11820;48.738;9.092;2024-01-27T06:35:59;98155.34;;;1.45;100.00
23303;BME280;11820;48.738;9.092;2024-01-27T06:38:26;98157.16;;;1.57;100.00
23303;BME280;11820;48.738;9.092;2024-01-27T06:40:51;98164.44;;;1.77;100.00
23303;BME280;11820;48.738;9.092;2024-01-27T06:43:17;98157.50;;;1.79;100.00
23303;BME280;11820;48.738;9.092;2024-01-27T06:45:42;98166.94;;;1.91;100.00
23303;BME280;11820;48.738;9.092;2024-01-27T06:48:07;98169.16;;;1.83;100.00
23303;BME280;11820;48.738;9.092;2024-01-27T06:50:33;98165.22;;;1.91;100.00
23303;BME280;11820;48.738;9.092;2024-01-27T06:52:58;98158.78;;;1.58;100.00
23303;BME280;11820;48.738;9.092;2024-01-27T06:55:24;98157.88;;;1.59;100.00
23303;BME280;11820;48.738;9.092;2024-01-27T06:57:49;98163.50;;;1.64;100.00
23303;BME280;11820;48.738;9.092;2024-01-27T07:00:16;98157.91;;;1.45;100.00
23303;BME280;11820;48.738;9.092;2024-01-27T07:02:41;98169.53;;;1.49;100.00
23303;BME280;11820;48.738;9.092;2024-01-27T07:05:10;98172.38;;;1.58;100.00
23303;BME280;11820;48.738;9.092;2024-01-27T07:07:35;98173.00;;;1.48;100.00
23303;BME280;11820;48.738;9.092;2024-01-27T07:10:01;98170.06;;;1.26;100.00
23303;BME280;11820;48.738;9.092;2024-01-27T07:12:26;98164.63;;;1.46;100.00
23303;BME280;11820;48.738;9.092;2024-01-27T07:14:52;98169.53;;;1.77;100.00
23303;BME280;11820;48.738;9.092;2024-01-27T07:17:17;98166.16;;;1.76;100.00
23303;BME280;11820;48.738;9.092;2024-01-27T07:19:43;98167.16;;;1.74;100.00
23303;BME280;11820;48.738;9.092;2024-01-27T07:22:08;98166.28;;;1.47;100.00
23303;BME280;11820;48.738;9.092;2024-01-27T07:24:34;98163.00;;;1.45;100.00
23303;BME280;11820;48.738;9.092;2024-01-27T07:27:00;98166.09;;;1.50;100.00
23303;BME280;11820;48.738;9.092;2024-01-27T07:29:25;98162.19;;;1.58;100.00
23303;BME280;11820;48.738;9.092;2024-01-27T07:31:51;98161.25;;;1.73;100.00
23303;BME280;11820;48.738;9.092;2024-01-27T07:34:16;98163.44;;;1.52;100.00
23303;BME280;11820;48.738;9.092;2024-01-27T07:36:41;98172.09;;;1.49;100.00
23303;BME280;11820;48.738;9.092;2024-01-27T07:39:07;98167.72;;;1.51;100.00
23303;BME280;11820;48.738;9.092;2024-01-27T07:41:32;98169.72;;;1.46;100.00
23303;BME280;11820;48.738;9.092;2024-01-27T07:44:06;98173.00;;;1.48;100.00
23303;BME280;11820;48.738;9.092;2024-01-27T07:46:32;98170.06;;;1.40;100.00
23303;BME280;11820;48.738;9.092;2024-01-27T07:48:57;98169.63;;;1.34;100.00
23303;BME280;11820;48.738;9.092;2024-01-27T07:51:22;98162.44;;;1.54;100.00
23303;BME280;11820;48.738;9.092;2024-01-27T07:53:48;98158.59;;;1.61;100.00
23303;BME280;11820;48.738;9.092;2024-01-27T07:56:13;98161.25;;;2.14;100.00
23303;BME280;11820;48.738;9.092;2024-01-27T07:58:38;98161.75;;;2.06;100.00
23303;BME280;11820;48.738;9.092;2024-01-27T08:01:03;98154.31;;;1.75;100.00
23303;BME280;11820;48.738;9.092;2024-01-27T08:03:29;98160.25;;;1.76;100.00
23303;BME280;11820;48.738;9.092;2024-01-27T08:05:54;98155.75;;;1.93;100.00
23303;BME280;11820;48.738;9.092;2024-01-27T08:08:21;98162.75;;;2.04;100.00
23303;BME280;11820;48.738;9.092;2024-01-27T08:10:46;98158.09;;;1.96;100.00
23303;BME280;11820;48.738;9.092;2024-01-27T08:13:11;98156.41;;;2.23;100.00
23303;BME280;11820;48.738;9.092;2024-01-27T08:15:37;98155.59;;;2.23;100.00
23303;BME280;11820;48.738;9.092;2024-01-27T08:18:02;98158.91;;;2.11;100.00
23303;BME280;11820;48.738;9.092;2024-01-27T08:20:27;98156.28;;;1.98;100.00
23303;BME280;11820;48.738;9.092;2024-01-27T08:22:53;98148.50;;;2.14;100.00
23303;BME280;11820;48.738;9.092;2024-01-27T08:25:18;98153.81;;;2.37;100.00
23303;BME280;11820;48.738;9.092;2024-01-27T08:27:43;98159.91;;;2.61;100.00
23303;BME280;11820;48.738;9.092;2024-01-27T08:30:09;98159.09;;;2.61;100.00
23303;BME280;11820;48.738;9.092;2024-01-27T08:32:35;98165.94;;;2.60;100.00
23303;BME280;11820;48.738;9.092;2024-01-27T08:35:00;98157.25;;;2.63;100.00
23303;BME280;11820;48.738;9.092;2024-01-27T08:37:26;98147.00;;;2.77;100.00
23303;BME280;11820;48.738;9.092;2024-01-27T08:39:51;98140.47;;;2.85;100.00
23303;BME280;11820;48.738;9.092;2024-01-27T08:42:17;98140.56;;;2.96;100.00
23303;BME280;11820;48.738;9.092;2024-01-27T08:44:42;98139.03;;;3.06;100.00
23303;BME280;11820;48.738;9.092;2024-01-27T08:47:07;98141.59;;;3.18;100.00
23303;BME280;11820;48.738;9.092;2024-01-27T08:49:33;98131.28;;;3.32;100.00
23303;BME280;11820;48.738;9.092;2024-01-27T08:51:58;98122.78;;;3.44;100.00
23303;BME280;11820;48.738;9.092;2024-01-27T08:54:23;98127.06;;;3.69;100.00
23303;BME280;11820;48.738;9.092;2024-01-27T08:56:49;98130.59;;;3.79;100.00
23303;BME280;11820;48.738;9.092;2024-01-27T08:59:14;98142.59;;;3.78;100.00
23303;BME280;11820;48.738;9.092;2024-01-27T09:01:39;98139.47;;;3.98;100.00
23303;BME280;11820;48.738;9.092;2024-01-27T09:04:05;98139.41;;;4.23;100.00
23303;BME280;11820;48.738;9.092;2024-01-27T09:06:30;98136.44;;;4.40;100.00
23303;BME280;11820;48.738;9.092;2024-01-27T09:08:55;98138.72;;;4.56;100.00
23303;BME280;11820;48.738;9.092;2024-01-27T09:11:21;98135.22;;;4.57;100.00
23303;BME280;11820;48.738;9.092;2024-01-27T09:13:52;98134.22;;;4.70;100.00
23303;BME280;11820;48.738;9.092;2024-01-27T09:16:18;98133.03;;;4.63;100.00
23303;BME280;11820;48.738;9.092;2024-01-27T09:18:43;98142.63;;;4.72;100.00
23303;BME280;11820;48.738;9.092;2024-01-27T09:21:09;98143.38;;;4.85;100.00
23303;BME280;11820;48.738;9.092;2024-01-27T09:23:34;98139.25;;;5.06;100.00
23303;BME280;11820;48.738;9.092;2024-01-27T09:26:00;98145.31;;;5.16;100.00
23303;BME280;11820;48.738;9.092;2024-01-27T09:28:25;98149.97;;;5.22;100.00
23303;BME280;11820;48.738;9.092;2024-01-27T09:30:51;98160.22;;;5.22;100.00
23303;BME280;11820;48.738;9.092;2024-01-27T09:33:16;98154.56;;;5.51;100.00
23303;BME280;11820;48.738;9.092;2024-01-27T09:35:45;98153.53;;;5.65;100.00
23303;BME280;11820;48.738;9.092;2024-01-27T09:38:10;98153.19;;;5.69;100.00
23303;BME280;11820;48.738;9.092;2024-01-27T09:40:38;98157.28;;;5.94;100.00
23303;BME280;11820;48.738;9.092;2024-01-27T09:43:03;98152.50;;;6.00;100.00
23303;BME280;11820;48.738;9.092;2024-01-27T09:45:29;98162.38;;;6.16;100.00
23303;BME280;11820;48.738;9.092;2024-01-27T09:47:57;98161.00;;;6.12;100.00
23303;BME280;11820;48.738;9.092;2024-01-27T09:50:25;98159.78;;;6.38;100.00
23303;BME280;11820;48.738;9.092;2024-01-27T09:52:50;98159.88;;;6.47;100.00
23303;BME280;11820;48.738;9.092;2024-01-27T09:55:17;98157.91;;;6.71;100.00
23303;BME280;11820;48.738;9.092;2024-01-27T09:57:44;98161.56;;;6.89;100.00
23303;BME280;11820;48.738;9.092;2024-01-27T10:00:10;98163.75;;;6.73;100.00
23303;BME280;11820;48.738;9.092;2024-01-27T10:02:39;98168.88;;;7.04;100.00
23303;BME280;11820;48.738;9.092;2024-01-27T10:05:08;98162.44;;;7.40;100.00
23303;BME280;11820;48.738;9.092;2024-01-27T10:07:33;98175.94;;;7.53;100.00
23303;BME280;11820;48.738;9.092;2024-01-27T10:09:59;98177.78;;;7.71;100.00
23303;BME280;11820;48.738;9.092;2024-01-27T10:12:25;98171.16;;;7.78;100.00
23303;BME280;11820;48.738;9.092;2024-01-27T10:14:51;98178.47;;;7.73;100.00
23303;BME280;11820;48.738;9.092;2024-01-27T10:17:21;98167.72;;;7.98;100.00
23303;BME280;11820;48.738;9.092;2024-01-27T10:20:04;98171.81;;;8.00;100.00
23303;BME280;11820;48.738;9.092;2024-01-27T10:22:38;98176.31;;;8.38;100.00
23303;BME280;11820;48.738;9.092;2024-01-27T10:25:04;98167.22;;;8.34;100.00
23303;BME280;11820;48.738;9.092;2024-01-27T10:27:29;98178.22;;;8.06;100.00
23303;BME280;11820;48.738;9.092;2024-01-27T10:29:54;98173.88;;;8.46;100.00
23303;BME280;11820;48.738;9.092;2024-01-27T10:32:21;98171.28;;;8.46;100.00
23303;BME280;11820;48.738;9.092;2024-01-27T10:34:49;98166.28;;;8.54;100.00
23303;BME280;11820;48.738;9.092;2024-01-27T10:37:15;98169.16;;;8.79;100.00
23303;BME280;11820;48.738;9.092;2024-01-27T10:39:40;98161.94;;;9.21;100.00
23303;BME280;11820;48.738;9.092;2024-01-27T10:42:07;98154.84;;;9.42;100.00
23303;BME280;11820;48.738;9.092;2024-01-27T10:44:35;98149.38;;;9.90;100.00
23303;BME280;11820;48.738;9.092;2024-01-27T10:47:04;98140.28;;;10.23;100.00
23303;BME280;11820;48.738;9.092;2024-01-27T10:49:34;98127.31;;;10.67;100.00
23303;BME280;11820;48.738;9.092;2024-01-27T10:52:06;98121.88;;;10.96;100.00
23303;BME280;11820;48.738;9.092;2024-01-27T10:54:35;98122.56;;;10.80;100.00
23303;BME280;11820;48.738;9.092;2024-01-27T10:57:02;98120.91;;;11.14;100.00
23303;BME280;11820;48.738;9.092;2024-01-27T10:59:30;98113.19;;;11.73;100.00
23303;BME280;11820;48.738;9.092;2024-01-27T11:01:57;98107.47;;;12.03;100.00
23303;BME280;11820;48.738;9.092;2024-01-27T11:04:23;98112.97;;;11.92;100.00
23303;BME280;11820;48.738;9.092;2024-01-27T11:06:50;98117.22;;;12.09;100.00
23303;BME280;11820;48.738;9.092;2024-01-27T11:09:17;98112.44;;;11.88;100.00
23303;BME280;11820;48.738;9.092;2024-01-27T11:11:44;98113.50;;;12.03;100.00
23303;BME280;11820;48.738;9.092;2024-01-27T11:14:10;98115.56;;;12.00;100.00
23303;BME280;11820;48.738;9.092;2024-01-27T11:16:36;98107.22;;;12.30;100.00
23303;BME280;11820;48.738;9.092;2024-01-27T11:19:09;98097.69;;;12.38;100.00
23303;BME280;11820;48.738;9.092;2024-01-27T11:21:35;98093.88;;;12.09;100.00
23303;BME280;11820;48.738;9.092;2024-01-27T11:24:01;98096.78;;;11.98;100.00
23303;BME280;11820;48.738;9.092;2024-01-27T11:26:37;98097.13;;;12.11;100.00
23303;BME280;11820;48.738;9.092;2024-01-27T11:29:06;98092.31;;;12.16;100.00
23303;BME280;11820;48.738;9.092;2024-01-27T11:31:32;98084.91;;;12.45;100.00
23303;BME280;11820;48.738;9.092;2024-01-27T11:33:58;98087.34;;;12.62;100.00
23303;BME280;11820;48.738;9.092;2024-01-27T11:36:24;98096.84;;;12.14;100.00
23303;BME280;11820;48.738;9.092;2024-01-27T11:38:50;98101.31;;;11.96;100.00
23303;BME280;11820;48.738;9.092;2024-01-27T11:41:29;98097.56;;;11.98;100.00
23303;BME280;11820;48.738;9.092;2024-01-27T11:43:57;98087.00;;;12.33;100.00
23303;BME280;11820;48.738;9.092;2024-01-27T11:46:23;98089.06;;;12.14;100.00
23303;BME280;11820;48.738;9.092;2024-01-27T11:48:49;98082.31;;;11.95;100.00
23303;BME280;11820;48.738;9.092;2024-01-27T11:51:14;98089.34;;;12.11;100.00
23303;BME280;11820;48.738;9.092;2024-01-27T11:53:40;98092.66;;;11.79;100.00
23303;BME280;11820;48.738;9.092;2024-01-27T11:56:06;98102.91;;;11.89;100.00
23303;BME280;11820;48.738;9.092;2024-01-27T11:58:31;98094.28;;;11.80;100.00
23303;BME280;11820;48.738;9.092;2024-01-27T12:00:57;98093.16;;;12.40;100.00
23303;BME280;11820;48.738;9.092;2024-01-27T12:03:24;98100.03;;;12.00;100.00
23303;BME280;11820;48.738;9.092;2024-01-27T12:05:49;98098.16;;;12.34;100.00
23303;BME280;11820;48.738;9.092;2024-01-27T12:08:16;98094.16;;;12.55;100.00
23303;BME280;11820;48.738;9.092;2024-01-27T12:10:42;98085.25;;;12.66;100.00
23303;BME280;11820;48.738;9.092;2024-01-27T12:13:07;98073.41;;;12.79;100.00
23303;BME280;11820;48.738;9.092;2024-01-27T12:15:32;98066.09;;;12.75;100.00
23303;BME280;11820;48.738;9.092;2024-01-27T12:17:58;98067.41;;;13.02;100.00
23303;BME280;11820;48.738;9.092;2024-01-27T12:20:23;98069.34;;;12.61;100.00
23303;BME280;11820;48.738;9.092;2024-01-27T12:22:48;98066.25;;;12.65;100.00
23303;BME280;11820;48.738;9.092;2024-01-27T12:25:20;98064.47;;;12.82;100.00
23303;BME280;11820;48.738;9.092;2024-01-27T12:27:46;98066.59;;;12.62;100.00
23303;BME280;11820;48.738;9.092;2024-01-27T12:30:11;98056.53;;;12.67;100.00
23303;BME280;11820;48.738;9.092;2024-01-27T12:32:37;98054.91;;;12.82;100.00
23303;BME280;11820;48.738;9.092;2024-01-27T12:35:07;98056.34;;;12.85;100.00
23303;BME280;11820;48.738;9.092;2024-01-27T12:37:34;98048.28;;;12.96;100.00
23303;BME280;11820;48.738;9.092;2024-01-27T12:39:59;98048.25;;;13.11;100.00
23303;BME280;11820;48.738;9.092;2024-01-27T12:42:24;98038.25;;;13.85;99.54
23303;BME280;11820;48.738;9.092;2024-01-27T12:44:50;98030.94;;;13.50;96.63
23303;BME280;11820;48.738;9.092;2024-01-27T12:47:15;98029.06;;;13.28;95.47
23303;BME280;11820;48.738;9.092;2024-01-27T12:49:41;98022.31;;;13.58;96.17